createdAt,value
2018-12-26T00:00:38.803Z,15.87
2018-12-26T00:03:08.763Z,16.00
2018-12-26T00:05:38.176Z,16.00
2018-12-26T00:08:07.673Z,15.13
2018-12-26T00:10:37.254Z,16.20
2018-12-26T00:13:06.785Z,15.20
2018-12-26T00:15:36.313Z,16.03
2018-12-26T00:18:05.780Z,16.07
2018-12-26T00:20:35.566Z,14.33
2018-12-26T00:23:05.120Z,16.03
2018-12-26T00:25:34.520Z,15.27
2018-12-26T00:28:04.115Z,16.40
2018-12-26T00:30:33.548Z,15.70
2018-12-26T00:33:02.893Z,16.50
2018-12-26T00:35:32.849Z,17.67
2018-12-26T00:38:02.305Z,16.03
2018-12-26T00:40:31.692Z,16.27
2018-12-26T00:43:01.054Z,16.10
2018-12-26T00:45:30.455Z,17.00
2018-12-26T00:47:59.891Z,16.77
2018-12-26T00:50:29.371Z,16.90
2018-12-26T00:52:58.729Z,16.47
2018-12-26T00:55:28.162Z,15.37
2018-12-26T00:57:58.845Z,15.93
2018-12-26T01:00:28.170Z,16.50
2018-12-26T01:02:57.592Z,16.80
2018-12-26T01:05:27.009Z,17.23
2018-12-26T01:07:56.825Z,16.67
2018-12-26T01:10:26.291Z,16.23
2018-12-26T01:12:55.733Z,17.13
2018-12-26T01:15:25.149Z,16.37
2018-12-26T01:17:54.555Z,17.90
2018-12-26T01:20:24.212Z,17.63
2018-12-26T01:22:54.138Z,16.73
2018-12-26T01:25:24.040Z,16.80
2018-12-26T01:27:53.452Z,17.93
2018-12-26T01:30:22.860Z,17.77
2018-12-26T01:32:52.206Z,16.63
2018-12-26T01:35:22.402Z,18.03
2018-12-26T01:37:51.887Z,16.80
2018-12-26T01:40:21.297Z,17.27
2018-12-26T01:42:50.637Z,16.93
2018-12-26T01:45:20.022Z,18.43
2018-12-26T01:47:49.411Z,17.63
2018-12-26T01:50:18.743Z,18.03
2018-12-26T01:52:48.356Z,18.90
2018-12-26T01:55:18.203Z,18.53
2018-12-26T01:57:47.653Z,18.77
2018-12-26T02:00:17.027Z,18.43
2018-12-26T02:02:46.463Z,17.70
2018-12-26T02:05:15.861Z,19.43
2018-12-26T02:07:45.304Z,19.13
2018-12-26T02:10:14.739Z,18.97
2018-12-26T02:12:44.176Z,19.77
2018-12-26T02:15:13.560Z,20.50
2018-12-26T02:17:42.986Z,19.87
2018-12-26T02:20:12.406Z,19.67
2018-12-26T02:22:41.841Z,21.40
2018-12-26T02:25:11.336Z,19.87
2018-12-26T02:27:40.714Z,21.30
2018-12-26T02:30:10.116Z,20.87
2018-12-26T02:32:39.470Z,22.30
2018-12-26T02:35:09.271Z,22.23
2018-12-26T02:37:38.939Z,22.73
2018-12-26T02:40:08.578Z,23.07
2018-12-26T02:42:38.093Z,23.13
2018-12-26T02:45:07.797Z,23.83
2018-12-26T02:47:37.665Z,23.57
2018-12-26T02:50:08.577Z,24.03
2018-12-26T02:52:37.976Z,23.87
2018-12-26T02:55:07.741Z,24.40
2018-12-26T02:57:37.123Z,24.00
2018-12-26T03:00:07.216Z,24.73
2018-12-26T03:02:36.536Z,23.77
2018-12-26T03:05:06.416Z,23.70
2018-12-26T03:07:36.143Z,23.70
2018-12-26T03:10:05.800Z,25.40
2018-12-26T03:12:35.313Z,24.40
2018-12-26T03:15:05.376Z,25.80
2018-12-26T03:17:35.344Z,25.00
2018-12-26T03:20:05.533Z,24.77
2018-12-26T03:22:34.932Z,24.53
2018-12-26T03:25:04.623Z,24.37
2018-12-26T03:27:36.464Z,24.77
2018-12-26T03:30:06.157Z,24.53
2018-12-26T03:32:35.984Z,24.67
2018-12-26T03:35:05.794Z,25.70
2018-12-26T03:37:35.746Z,23.87
2018-12-26T03:40:05.843Z,24.57
2018-12-26T03:42:35.559Z,23.57
2018-12-26T03:45:05.405Z,23.70
2018-12-26T03:47:35.276Z,25.10
2018-12-26T03:50:04.785Z,25.93
2018-12-26T03:52:34.154Z,26.93
2018-12-26T03:55:03.564Z,24.67
2018-12-26T03:57:33.008Z,25.43
2018-12-26T04:00:02.413Z,25.27
2018-12-26T04:02:31.854Z,26.67
2018-12-26T04:05:01.274Z,26.83
2018-12-26T04:07:30.868Z,26.27
2018-12-26T04:10:01.135Z,27.00
2018-12-26T04:12:31.105Z,27.97
2018-12-26T04:15:01.554Z,27.83
2018-12-26T04:17:30.973Z,27.33
2018-12-26T04:20:00.428Z,29.40
2018-12-26T04:22:29.948Z,28.93
2018-12-26T04:24:59.676Z,28.57
2018-12-26T04:27:29.373Z,27.87
2018-12-26T04:29:59.151Z,28.93
2018-12-26T04:32:28.453Z,28.80
2018-12-26T04:34:57.839Z,29.50
2018-12-26T04:37:27.684Z,30.20
2018-12-26T04:39:57.235Z,30.30
2018-12-26T04:42:27.069Z,28.67
2018-12-26T04:44:56.496Z,29.97
2018-12-26T04:47:26.003Z,30.77
2018-12-26T04:49:55.438Z,29.90
2018-12-26T04:52:24.872Z,30.73
2018-12-26T04:54:56.354Z,30.30
2018-12-26T04:57:25.390Z,31.27
2018-12-26T04:59:55.186Z,30.63
2018-12-26T05:02:24.591Z,28.30
2018-12-26T05:04:54.030Z,32.17
2018-12-26T05:07:23.422Z,30.40
2018-12-26T05:09:52.766Z,30.73
2018-12-26T05:12:22.189Z,30.07
2018-12-26T05:14:51.610Z,30.57
2018-12-26T05:17:21.105Z,32.70
2018-12-26T05:19:50.558Z,30.83
2018-12-26T05:22:20.366Z,32.03
2018-12-26T05:24:49.899Z,32.80
2018-12-26T05:27:19.298Z,33.97
2018-12-26T05:29:48.693Z,33.43
2018-12-26T05:32:18.065Z,32.03
2018-12-26T05:34:47.497Z,34.67
2018-12-26T05:37:17.088Z,35.23
2018-12-26T05:39:46.447Z,34.20
2018-12-26T05:42:16.710Z,34.93
2018-12-26T05:44:46.141Z,35.23
2018-12-26T05:47:15.620Z,35.63
2018-12-26T05:49:45.054Z,35.07
2018-12-26T05:52:14.895Z,37.20
2018-12-26T05:54:44.318Z,36.73
2018-12-26T05:57:13.840Z,37.67
2018-12-26T05:59:43.352Z,36.83
2018-12-26T06:02:13.087Z,38.93
2018-12-26T06:04:42.610Z,38.83
2018-12-26T06:07:12.053Z,39.03
2018-12-26T06:09:41.541Z,40.00
2018-12-26T06:12:11.579Z,41.03
2018-12-26T06:14:41.208Z,39.57
2018-12-26T06:17:10.535Z,40.40
2018-12-26T06:19:39.923Z,39.30
2018-12-26T06:22:09.363Z,39.37
2018-12-26T06:24:38.739Z,41.67
2018-12-26T06:27:08.301Z,40.00
2018-12-26T06:29:37.753Z,41.90
2018-12-26T06:32:07.193Z,40.83
2018-12-26T06:34:36.647Z,41.67
2018-12-26T06:37:06.303Z,40.73
2018-12-26T06:39:36.282Z,42.63
2018-12-26T06:42:05.686Z,41.53
2018-12-26T06:44:35.098Z,43.83
2018-12-26T06:47:04.869Z,41.43
2018-12-26T06:49:34.268Z,42.23
2018-12-26T06:52:03.608Z,41.23
2018-12-26T06:54:33.035Z,39.87
2018-12-26T06:57:02.415Z,42.00
2018-12-26T06:59:31.786Z,41.93
2018-12-26T07:02:02.522Z,42.73
2018-12-26T07:04:32.319Z,43.33
2018-12-26T07:07:01.841Z,40.70
2018-12-26T07:09:32.422Z,43.33
2018-12-26T07:12:01.762Z,44.70
2018-12-26T07:14:31.176Z,42.77
2018-12-26T07:17:00.577Z,43.53
2018-12-26T07:19:30.067Z,44.40
2018-12-26T07:21:59.487Z,41.93
2018-12-26T07:24:28.843Z,41.77
2018-12-26T07:26:58.263Z,41.73
2018-12-26T07:29:28.082Z,43.07
2018-12-26T07:31:57.500Z,42.53
2018-12-26T07:34:26.902Z,39.77
2018-12-26T07:36:56.516Z,43.20
2018-12-26T07:39:25.912Z,43.73
2018-12-26T07:41:55.283Z,42.67
2018-12-26T07:44:24.589Z,42.67
2018-12-26T07:46:53.860Z,43.27
2018-12-26T07:49:24.146Z,43.03
2018-12-26T07:51:53.572Z,43.00
2018-12-26T07:54:23.021Z,41.17
2018-12-26T07:56:52.765Z,42.77
2018-12-26T07:59:22.189Z,41.13
2018-12-26T08:01:51.505Z,42.43
2018-12-26T08:04:20.851Z,41.63
2018-12-26T08:06:50.239Z,41.73
2018-12-26T08:09:19.645Z,42.43
2018-12-26T08:11:48.967Z,42.53
2018-12-26T08:14:18.691Z,41.40
2018-12-26T08:16:48.098Z,41.80
2018-12-26T08:19:17.539Z,43.33
2018-12-26T08:21:47.042Z,41.50
2018-12-26T08:24:16.570Z,43.07
2018-12-26T08:26:47.576Z,40.83
2018-12-26T08:29:17.445Z,43.07
2018-12-26T08:31:47.098Z,41.70
2018-12-26T08:34:16.684Z,42.27
2018-12-26T08:36:46.253Z,42.60
2018-12-26T08:39:15.661Z,41.17
2018-12-26T08:41:45.090Z,41.50
2018-12-26T08:44:14.973Z,41.47
2018-12-26T08:46:44.353Z,41.60
2018-12-26T08:49:13.763Z,41.00
2018-12-26T08:51:43.133Z,41.80
2018-12-26T08:54:12.461Z,42.47
2018-12-26T08:56:41.875Z,45.50
2018-12-26T08:59:12.085Z,42.83
2018-12-26T09:01:41.849Z,42.70
2018-12-26T09:04:11.301Z,42.97
2018-12-26T09:06:40.749Z,41.97
2018-12-26T09:09:10.303Z,42.07
2018-12-26T09:11:40.243Z,41.67
2018-12-26T09:14:09.636Z,42.20
2018-12-26T09:16:39.231Z,42.57
2018-12-26T09:19:08.719Z,42.00
2018-12-26T09:21:38.263Z,43.87
2018-12-26T09:24:07.664Z,42.50
2018-12-26T09:26:42.352Z,42.90
2018-12-26T09:29:11.560Z,42.70
2018-12-26T09:31:40.912Z,44.33
2018-12-26T09:34:10.330Z,45.10
2018-12-26T09:36:39.832Z,47.03
2018-12-26T09:39:09.543Z,44.17
2018-12-26T09:41:38.971Z,46.63
2018-12-26T09:44:08.351Z,45.80
2018-12-26T09:46:37.871Z,46.73
2018-12-26T09:49:07.374Z,47.00
2018-12-26T09:51:36.822Z,47.07
2018-12-26T09:54:06.248Z,45.93
2018-12-26T09:56:35.684Z,46.57
2018-12-26T09:59:05.106Z,46.53
2018-12-26T10:01:34.432Z,47.10
2018-12-26T10:04:03.876Z,47.33
2018-12-26T10:06:33.265Z,46.10
2018-12-26T10:09:02.627Z,45.90
2018-12-26T10:11:31.989Z,47.53
2018-12-26T10:14:01.522Z,46.90
2018-12-26T10:16:31.151Z,47.50
2018-12-26T10:19:00.565Z,47.10
2018-12-26T10:21:29.933Z,46.87
2018-12-26T10:23:59.288Z,46.53
2018-12-26T10:26:28.742Z,46.53
2018-12-26T10:29:01.070Z,48.00
2018-12-26T10:31:29.536Z,47.73
2018-12-26T10:33:58.928Z,48.40
2018-12-26T10:36:28.804Z,47.90
2018-12-26T10:38:58.640Z,49.80
2018-12-26T10:41:28.082Z,49.93
2018-12-26T10:43:57.543Z,49.10
2018-12-26T10:46:27.255Z,48.33
2018-12-26T10:48:56.644Z,50.50
2018-12-26T10:51:26.446Z,47.93
2018-12-26T10:53:56.162Z,48.23
2018-12-26T10:56:25.553Z,47.20
2018-12-26T10:58:55.375Z,49.20
2018-12-26T11:01:25.050Z,46.50
2018-12-26T11:03:54.557Z,47.87
2018-12-26T11:06:24.014Z,50.57
2018-12-26T11:08:53.505Z,47.33
2018-12-26T11:11:22.947Z,48.87
2018-12-26T11:13:52.367Z,49.10
2018-12-26T11:16:21.797Z,48.83
2018-12-26T11:18:51.560Z,48.37
2018-12-26T11:21:20.950Z,50.60
2018-12-26T11:23:50.376Z,49.23
2018-12-26T11:26:20.259Z,48.47
2018-12-26T11:28:49.652Z,47.57
2018-12-26T11:31:20.814Z,50.50
2018-12-26T11:33:50.196Z,49.40
2018-12-26T11:36:19.677Z,49.03
2018-12-26T11:38:49.490Z,48.97
2018-12-26T11:41:19.235Z,48.77
2018-12-26T11:43:48.766Z,48.63
2018-12-26T11:46:18.119Z,49.53
2018-12-26T11:48:47.537Z,49.93
2018-12-26T11:51:16.968Z,50.03
2018-12-26T11:53:46.475Z,49.30
2018-12-26T11:56:15.913Z,48.70
2018-12-26T11:58:45.307Z,48.23
2018-12-26T12:01:14.731Z,48.53
2018-12-26T12:03:44.048Z,49.87
2018-12-26T12:06:13.417Z,52.60
2018-12-26T12:08:42.864Z,48.03
2018-12-26T12:11:13.170Z,47.33
2018-12-26T12:13:42.902Z,47.53
2018-12-26T12:16:12.304Z,46.27
2018-12-26T12:18:42.418Z,47.60
2018-12-26T12:21:12.676Z,49.27
2018-12-26T12:23:42.200Z,48.10
2018-12-26T12:26:11.600Z,50.83
2018-12-26T12:28:40.937Z,49.87
2018-12-26T12:31:10.445Z,49.77
2018-12-26T12:33:39.845Z,50.30
2018-12-26T12:36:09.303Z,51.20
2018-12-26T12:38:38.683Z,51.57
2018-12-26T12:41:08.107Z,48.63
2018-12-26T12:43:37.578Z,48.57
2018-12-26T12:46:06.954Z,46.97
2018-12-26T12:48:36.621Z,49.33
2018-12-26T12:51:06.096Z,49.57
2018-12-26T12:53:35.536Z,48.37
2018-12-26T12:56:11.855Z,49.83
2018-12-26T12:58:36.465Z,48.70
2018-12-26T13:01:05.894Z,49.40
2018-12-26T13:03:35.301Z,50.40
2018-12-26T13:06:04.734Z,47.63
2018-12-26T13:08:34.175Z,47.93
2018-12-26T13:11:04.002Z,49.77
2018-12-26T13:13:33.408Z,49.27
2018-12-26T13:16:02.824Z,48.30
2018-12-26T13:18:32.252Z,46.77
2018-12-26T13:21:01.680Z,49.30
2018-12-26T13:23:31.096Z,47.30
2018-12-26T13:26:00.442Z,49.03
2018-12-26T13:28:29.874Z,48.40
2018-12-26T13:31:05.132Z,47.90
2018-12-26T13:33:33.347Z,49.47
2018-12-26T13:36:02.738Z,48.73
2018-12-26T13:38:32.150Z,51.07
2018-12-26T13:41:01.690Z,48.13
2018-12-26T13:43:31.701Z,47.27
2018-12-26T13:46:01.101Z,48.23
2018-12-26T13:48:30.743Z,47.10
2018-12-26T13:51:00.258Z,49.57
2018-12-26T13:53:29.865Z,48.77
2018-12-26T13:55:59.535Z,50.13
2018-12-26T13:58:28.973Z,48.93
2018-12-26T14:00:58.398Z,47.37
2018-12-26T14:03:27.857Z,48.33
2018-12-26T14:05:57.361Z,47.43
2018-12-26T14:08:26.756Z,46.57
2018-12-26T14:10:56.484Z,48.07
2018-12-26T14:13:26.280Z,46.30
2018-12-26T14:15:55.680Z,46.37
2018-12-26T14:18:25.124Z,46.43
2018-12-26T14:20:54.622Z,48.23
2018-12-26T14:23:24.021Z,48.33
2018-12-26T14:25:53.395Z,47.93
2018-12-26T14:28:22.892Z,50.27
2018-12-26T14:30:52.268Z,46.50
2018-12-26T14:33:21.581Z,46.53
2018-12-26T14:35:58.334Z,46.67
2018-12-26T14:38:28.065Z,49.80
2018-12-26T14:40:57.880Z,47.50
2018-12-26T14:43:27.332Z,46.77
2018-12-26T14:45:56.715Z,48.97
2018-12-26T14:48:26.071Z,48.73
2018-12-26T14:50:55.452Z,47.07
2018-12-26T14:53:24.926Z,48.27
2018-12-26T14:55:54.484Z,46.23
2018-12-26T14:58:23.837Z,46.43
2018-12-26T15:00:54.036Z,45.73
2018-12-26T15:03:23.666Z,45.63
2018-12-26T15:05:53.180Z,45.53
2018-12-26T15:08:22.514Z,47.30
2018-12-26T15:10:52.294Z,46.03
2018-12-26T15:13:21.690Z,44.23
2018-12-26T15:15:51.082Z,41.73
2018-12-26T15:18:20.586Z,43.53
2018-12-26T15:20:50.236Z,42.73
2018-12-26T15:23:19.663Z,42.53
2018-12-26T15:25:49.418Z,43.47
2018-12-26T15:28:18.863Z,43.67
2018-12-26T15:30:48.378Z,42.27
2018-12-26T15:33:17.780Z,44.00
2018-12-26T15:35:47.214Z,44.70
2018-12-26T15:38:17.037Z,43.90
2018-12-26T15:40:46.536Z,43.47
2018-12-26T15:43:15.895Z,43.60
2018-12-26T15:45:45.391Z,42.47
2018-12-26T15:48:14.937Z,42.90
2018-12-26T15:50:44.310Z,43.67
2018-12-26T15:53:13.738Z,43.97
2018-12-26T15:55:43.204Z,42.87
2018-12-26T15:58:12.672Z,42.80
2018-12-26T16:00:42.098Z,44.50
2018-12-26T16:03:11.760Z,44.47
2018-12-26T16:05:41.155Z,43.40
2018-12-26T16:08:10.613Z,43.70
2018-12-26T16:10:40.042Z,42.57
2018-12-26T16:13:09.426Z,43.77
2018-12-26T16:15:38.854Z,43.47
2018-12-26T16:18:08.695Z,43.33
2018-12-26T16:20:38.139Z,42.07
2018-12-26T16:23:07.557Z,40.97
2018-12-26T16:25:37.311Z,42.50
2018-12-26T16:28:07.320Z,41.97
2018-12-26T16:30:36.824Z,42.50
2018-12-26T16:33:06.265Z,40.50
2018-12-26T16:35:35.629Z,42.53
2018-12-26T16:38:05.033Z,40.33
2018-12-26T16:40:34.455Z,41.47
2018-12-26T16:43:04.477Z,39.60
2018-12-26T16:45:34.211Z,42.07
2018-12-26T16:48:03.633Z,39.30
2018-12-26T16:50:33.224Z,41.80
2018-12-26T16:53:03.053Z,39.67
2018-12-26T16:55:32.472Z,39.90
2018-12-26T16:58:01.893Z,40.40
2018-12-26T17:00:31.266Z,39.67
2018-12-26T17:03:00.696Z,40.97
2018-12-26T17:05:30.039Z,40.50
2018-12-26T17:07:59.460Z,41.47
2018-12-26T17:10:28.791Z,37.73
2018-12-26T17:12:58.675Z,38.80
2018-12-26T17:15:28.089Z,38.73
2018-12-26T17:17:57.911Z,37.53
2018-12-26T17:20:27.298Z,38.67
2018-12-26T17:22:56.702Z,38.47
2018-12-26T17:25:26.107Z,38.53
2018-12-26T17:27:55.451Z,38.77
2018-12-26T17:30:24.855Z,40.07
2018-12-26T17:33:00.579Z,38.87
2018-12-26T17:35:25.483Z,39.50
2018-12-26T17:37:54.877Z,39.17
2018-12-26T17:40:24.487Z,39.73
2018-12-26T17:42:54.402Z,39.63
2018-12-26T17:45:24.626Z,39.13
2018-12-26T17:47:55.945Z,38.93
2018-12-26T17:50:53.092Z,38.47
2018-12-26T17:53:47.096Z,38.73
2018-12-26T17:56:37.444Z,38.57
2018-12-26T17:59:28.884Z,37.67
2018-12-26T18:02:13.122Z,39.43
2018-12-26T18:04:42.604Z,37.93
2018-12-26T18:07:12.049Z,40.27
2018-12-26T18:09:41.471Z,40.47
2018-12-26T18:12:12.162Z,41.00
2018-12-26T18:14:41.729Z,40.40
2018-12-26T18:17:11.120Z,39.20
2018-12-26T18:19:40.673Z,39.73
2018-12-26T18:22:14.296Z,39.45
2018-12-26T18:24:43.671Z,39.37
2018-12-26T18:27:13.360Z,38.50
2018-12-26T18:29:42.787Z,40.77
2018-12-26T18:32:12.227Z,38.57
2018-12-26T18:34:41.656Z,39.43
2018-12-26T18:37:11.101Z,39.93
2018-12-26T18:39:40.502Z,37.70
2018-12-26T18:42:10.253Z,40.97
2018-12-26T18:44:39.720Z,37.77
2018-12-26T18:47:09.104Z,40.27
2018-12-26T18:49:38.470Z,36.80
2018-12-26T18:52:08.168Z,38.60
2018-12-26T18:54:37.729Z,37.33
2018-12-26T18:57:07.071Z,37.67
2018-12-26T18:59:36.481Z,39.40
2018-12-26T19:02:05.887Z,38.20
2018-12-26T19:04:35.773Z,37.37
2018-12-26T19:07:05.129Z,37.97
2018-12-26T19:09:36.023Z,37.70
2018-12-26T19:12:05.383Z,37.87
2018-12-26T19:14:34.738Z,39.13
2018-12-26T19:17:04.870Z,38.60
2018-12-26T19:19:34.378Z,41.33
2018-12-26T19:22:04.145Z,39.33
2018-12-26T19:24:33.656Z,39.20
2018-12-26T19:27:03.022Z,39.13
2018-12-26T19:29:32.576Z,39.87
2018-12-26T19:32:02.407Z,37.00
2018-12-26T19:34:31.895Z,38.80
2018-12-26T19:37:01.725Z,37.93
2018-12-26T19:39:32.536Z,37.60
2018-12-26T19:42:02.184Z,38.17
2018-12-26T19:44:31.627Z,39.17
2018-12-26T19:47:01.773Z,37.70
2018-12-26T19:49:31.206Z,39.47
2018-12-26T19:52:00.971Z,38.50
2018-12-26T19:54:30.336Z,37.67
2018-12-26T19:56:59.761Z,36.23
2018-12-26T19:59:29.543Z,36.03
2018-12-26T20:01:59.331Z,36.07
2018-12-26T20:04:29.143Z,35.57
2018-12-26T20:06:58.523Z,35.20
2018-12-26T20:09:27.991Z,34.70
2018-12-26T20:12:02.747Z,33.93
2018-12-26T20:14:32.188Z,32.07
2018-12-26T20:17:01.607Z,32.67
2018-12-26T20:19:31.290Z,33.03
2018-12-26T20:22:03.726Z,32.33
2018-12-26T20:24:33.140Z,32.53
2018-12-26T20:27:02.994Z,31.93
2018-12-26T20:29:32.398Z,31.93
2018-12-26T20:32:02.128Z,32.63
2018-12-26T20:34:31.474Z,31.00
2018-12-26T20:37:00.817Z,30.97
2018-12-26T20:39:30.427Z,30.87
2018-12-26T20:42:00.130Z,29.67
2018-12-26T20:44:29.475Z,30.10
2018-12-26T20:46:58.825Z,30.67
2018-12-26T20:49:28.233Z,29.73
2018-12-26T20:51:57.587Z,28.87
2018-12-26T20:54:27.053Z,29.57
2018-12-26T20:56:56.382Z,30.43
2018-12-26T20:59:25.799Z,31.27
2018-12-26T21:01:55.227Z,29.20
2018-12-26T21:04:24.680Z,29.03
2018-12-26T21:06:54.079Z,28.57
2018-12-26T21:09:23.508Z,28.73
2018-12-26T21:11:52.841Z,30.97
2018-12-26T21:14:22.401Z,29.17
2018-12-26T21:16:55.090Z,29.23
2018-12-26T21:19:23.078Z,29.57
2018-12-26T21:21:52.535Z,30.13
2018-12-26T21:24:22.014Z,29.90
2018-12-26T21:26:51.367Z,29.07
2018-12-26T21:29:20.856Z,28.97
2018-12-26T21:31:50.596Z,28.27
2018-12-26T21:34:20.066Z,27.93
2018-12-26T21:36:54.092Z,28.43
2018-12-26T21:39:25.574Z,28.23
2018-12-26T21:41:54.980Z,26.60
2018-12-26T21:44:24.421Z,26.80
2018-12-26T21:46:53.881Z,26.60
2018-12-26T21:49:23.197Z,26.27
2018-12-26T21:51:53.318Z,26.63
2018-12-26T21:54:23.170Z,26.10
2018-12-26T21:56:52.619Z,25.07
2018-12-26T21:59:22.018Z,25.67
2018-12-26T22:01:51.569Z,24.50
2018-12-26T22:04:21.332Z,24.43
2018-12-26T22:06:50.845Z,24.90
2018-12-26T22:09:20.308Z,25.37
2018-12-26T22:11:49.765Z,23.87
2018-12-26T22:14:19.164Z,23.40
2018-12-26T22:16:48.602Z,23.47
2018-12-26T22:19:18.079Z,22.87
2018-12-26T22:21:47.516Z,23.57
2018-12-26T22:24:17.148Z,22.23
2018-12-26T22:26:46.571Z,24.10
2018-12-26T22:29:15.997Z,23.33
2018-12-26T22:31:45.419Z,23.10
2018-12-26T22:34:14.823Z,24.03
2018-12-26T22:36:44.275Z,24.37
2018-12-26T22:39:13.730Z,24.83
2018-12-26T22:41:43.053Z,24.50
2018-12-26T22:44:12.506Z,25.07
2018-12-26T22:46:41.955Z,25.23
2018-12-26T22:49:11.350Z,23.77
2018-12-26T22:51:42.098Z,24.67
2018-12-26T22:54:11.744Z,24.37
2018-12-26T22:56:41.267Z,24.53
2018-12-26T22:59:10.654Z,25.17
2018-12-26T23:01:40.139Z,24.33
2018-12-26T23:04:09.942Z,25.00
2018-12-26T23:06:39.398Z,25.43
2018-12-26T23:09:09.343Z,26.37
2018-12-26T23:11:38.790Z,25.27
2018-12-26T23:14:08.114Z,26.47
2018-12-26T23:16:37.752Z,27.30
2018-12-26T23:19:07.177Z,25.73
2018-12-26T23:21:37.003Z,27.67
2018-12-26T23:24:06.388Z,26.33
2018-12-26T23:26:35.777Z,27.97
2018-12-26T23:29:05.272Z,26.33
2018-12-26T23:31:34.705Z,26.30
2018-12-26T23:34:04.046Z,27.80
2018-12-26T23:36:33.811Z,27.73
2018-12-26T23:39:03.653Z,27.87
2018-12-26T23:41:35.469Z,27.53
2018-12-26T23:44:04.909Z,27.07
2018-12-26T23:46:34.386Z,27.60
2018-12-26T23:49:03.830Z,26.97
2018-12-26T23:51:33.199Z,26.77
2018-12-26T23:54:03.038Z,27.67
2018-12-26T23:56:32.444Z,26.53
2018-12-26T23:59:01.964Z,26.67
